Time;durP1;ratioP1;P1;durP2;ratioP2;P2;SDS_P1;SDS_P2;PMS_P1;PMS_P2;Temp;Humidity;BMP_temperature;BMP_pressure;BME280_temperature;BME280_humidity;BME280_pressure;Samples;Min_cycle;Max_cycle;Signal;HPM_P1;HPM_P2
2022/04/13 00:00:14;;;;;;;11.90;6.37;;;;;;;9.30;72.27;93623.50;5032857;28;20413;-50
2022/04/13 00:02:41;;;;;;;14.35;6.60;;;;;;;9.20;72.47;93627.94;5033007;28;20091;-48
2022/04/13 00:05:09;;;;;;;11.10;6.57;;;;;;;9.15;73.55;93622.16;5032835;28;20045;-50
2022/04/13 00:07:36;;;;;;;10.48;6.10;;;;;;;9.17;73.30;93628.75;5032905;28;20056;-47
2022/04/13 00:10:05;;;;;;;11.93;6.60;;;;;;;9.22;72.75;93618.56;5032916;28;20042;-53
2022/04/13 00:12:32;;;;;;;12.37;6.47;;;;;;;9.22;73.42;93613.09;5031896;28;20898;-51
2022/04/13 00:14:58;;;;;;;11.70;6.40;;;;;;;9.20;73.44;93618.97;5031665;28;20041;-50
2022/04/13 00:17:25;;;;;;;12.73;6.22;;;;;;;9.18;72.64;93621.34;5024575;28;20398;-56
2022/04/13 00:19:52;;;;;;;20.27;7.70;;;;;;;9.22;73.41;93622.06;5011582;28;20045;-49
2022/04/13 00:22:19;;;;;;;20.75;8.63;;;;;;;9.24;73.23;93627.13;5012505;28;20403;-49
2022/04/13 00:24:46;;;;;;;23.53;9.00;;;;;;;9.20;73.17;93627.94;5012870;28;20049;-46
2022/04/13 00:27:13;;;;;;;17.52;7.72;;;;;;;9.14;72.98;93620.63;5012491;28;20062;-55
2022/04/13 00:29:39;;;;;;;15.05;6.95;;;;;;;9.10;73.42;93619.91;5028897;28;20042;-51
2022/04/13 00:32:07;;;;;;;13.00;6.60;;;;;;;9.15;72.76;93630.38;5032175;28;20513;-49
2022/04/13 00:34:34;;;;;;;15.52;6.63;;;;;;;9.11;72.32;93624.94;5032873;28;20045;-49
2022/04/13 00:37:01;;;;;;;21.20;7.73;;;;;;;9.12;72.94;93626.50;5032820;28;20491;-47
2022/04/13 00:39:27;;;;;;;36.92;10.60;;;;;;;8.99;72.57;93620.84;5031690;28;20402;-47
2022/04/13 00:41:59;;;;;;;29.45;9.90;;;;;;;8.98;73.23;93624.75;5032629;28;20156;-47
2022/04/13 00:44:30;;;;;;;66.25;16.77;;;;;;;8.99;73.53;93631.00;5032237;28;20048;-46
2022/04/13 00:47:01;;;;;;;75.25;19.08;;;;;;;8.94;73.47;93623.25;5023416;28;20063;-49
2022/04/13 00:49:28;;;;;;;55.67;14.67;;;;;;;8.77;74.42;93625.81;5025725;28;20043;-49
2022/04/13 00:51:58;;;;;;;43.75;11.93;;;;;;;8.75;74.66;93633.66;5012992;28;20429;-51
2022/04/13 00:54:29;;;;;;;27.67;9.25;;;;;;;8.73;74.25;93627.03;5011726;28;20076;-53
2022/04/13 00:56:57;;;;;;;29.40;10.88;;;;;;;8.74;74.46;93623.91;5012400;28;20413;-50
2022/04/13 00:59:25;;;;;;;30.35;10.35;;;;;;;8.70;74.44;93628.63;5011888;28;20050;-50
2022/04/13 01:01:57;;;;;;;21.43;8.53;;;;;;;8.69;74.33;93631.78;5012077;28;20042;-53
2022/04/13 01:04:29;;;;;;;16.13;7.97;;;;;;;8.64;75.22;93633.00;5011980;28;20062;-50
2022/04/13 01:06:56;;;;;;;25.02;12.40;;;;;;;8.65;74.01;93631.81;5014914;28;20042;-49
2022/04/13 01:09:25;;;;;;;19.38;8.10;;;;;;;8.60;74.49;93637.75;5031206;28;20054;-49
2022/04/13 01:11:52;;;;;;;17.05;7.47;;;;;;;8.53;74.76;93633.16;5030661;28;20486;-50
2022/04/13 01:14:19;;;;;;;14.53;6.77;;;;;;;8.56;74.45;93634.28;5031663;28;20045;-53
2022/04/13 01:16:46;;;;;;;14.05;6.82;;;;;;;8.53;74.90;93640.56;5031614;28;20046;-51
2022/04/13 01:19:17;;;;;;;14.60;6.82;;;;;;;8.46;74.62;93637.94;5031193;28;20375;-50
2022/04/13 01:21:53;;;;;;;12.27;6.72;;;;;;;8.42;74.37;93642.66;5032036;28;20041;-51
2022/04/13 01:24:21;;;;;;;14.48;7.05;;;;;;;8.40;74.99;93641.06;5022112;28;20057;-49
2022/04/13 01:26:48;;;;;;;13.00;6.50;;;;;;;8.31;75.09;93648.22;5018084;28;20060;-47
2022/04/13 01:29:15;;;;;;;16.70;8.23;;;;;;;8.28;74.86;93643.56;5023985;28;20060;-49
2022/04/13 01:31:43;;;;;;;15.95;7.80;;;;;;;8.32;75.30;93644.31;5031531;28;20053;-53
2022/04/13 01:34:10;;;;;;;14.13;7.30;;;;;;;8.31;74.93;93640.81;5031136;28;20046;-48
2022/04/13 01:36:37;;;;;;;11.45;6.63;;;;;;;8.31;74.99;93643.53;5030242;28;20043;-46
2022/04/13 01:39:06;;;;;;;12.60;6.73;;;;;;;8.33;75.28;93643.09;5030170;28;20611;-51
2022/04/13 01:41:33;;;;;;;12.60;6.63;;;;;;;8.31;75.24;93650.94;5030642;28;20890;-53
2022/04/13 01:44:00;;;;;;;11.57;6.05;;;;;;;8.29;75.15;93648.63;5031316;28;20366;-49
2022/04/13 01:46:26;;;;;;;13.43;6.47;;;;;;;8.28;75.47;93649.03;5029531;28;20069;-50
2022/04/13 01:48:53;;;;;;;11.02;6.40;;;;;;;8.29;76.45;93653.31;5031114;28;20437;-48
2022/04/13 01:51:20;;;;;;;11.80;6.20;;;;;;;8.26;75.60;93649.44;5030542;28;20080;-55
2022/04/13 01:53:48;;;;;;;12.18;7.32;;;;;;;8.20;76.37;93662.00;5031085;28;20487;-53
2022/04/13 01:56:15;;;;;;;11.93;7.00;;;;;;;8.17;76.35;93660.88;5030649;28;20136;-54
2022/04/13 01:58:43;;;;;;;12.55;6.55;;;;;;;8.16;76.84;93662.03;5031160;28;20047;-49
2022/04/13 02:01:10;;;;;;;11.43;6.90;;;;;;;8.17;76.69;93655.41;5030378;28;20049;-46
2022/04/13 02:03:37;;;;;;;12.63;6.77;;;;;;;8.09;76.71;93653.13;5030949;28;20050;-46
2022/04/13 02:06:04;;;;;;;11.77;6.93;;;;;;;8.03;76.96;93658.28;5030921;28;20048;-47
2022/04/13 02:08:31;;;;;;;10.63;6.50;;;;;;;8.04;76.42;93664.50;5028688;28;20052;-53
2022/04/13 02:10:58;;;;;;;15.75;7.50;;;;;;;8.07;76.90;93659.00;5030686;28;20056;-51
2022/04/13 02:13:24;;;;;;;12.02;6.43;;;;;;;8.05;76.73;93655.13;5030152;28;20049;-49
2022/04/13 02:15:51;;;;;;;10.63;6.43;;;;;;;8.04;76.29;93654.34;5030783;28;20052;-53
2022/04/13 02:18:18;;;;;;;11.52;6.15;;;;;;;8.05;76.51;93655.13;5029978;28;20536;-48
2022/04/13 02:20:45;;;;;;;11.10;6.18;;;;;;;8.02;77.19;93653.22;5030660;28;20042;-47
2022/04/13 02:23:12;;;;;;;10.88;6.68;;;;;;;7.94;76.91;93656.00;5028466;28;20050;-49
2022/04/13 02:25:39;;;;;;;12.95;6.28;;;;;;;7.86;76.94;93664.69;5010713;28;20046;-45
2022/04/13 02:28:06;;;;;;;11.20;6.00;;;;;;;7.82;77.11;93661.97;5014126;28;20457;-51
2022/04/13 02:30:33;;;;;;;10.10;6.45;;;;;;;7.75;77.28;93656.59;5029630;28;20094;-54
2022/04/13 02:33:00;;;;;;;12.25;6.75;;;;;;;7.68;77.35;93659.38;5030425;28;20042;-49
2022/04/13 02:35:28;;;;;;;10.75;6.70;;;;;;;7.66;77.77;93669.91;5028708;28;20041;-46
2022/04/13 02:37:54;;;;;;;10.75;6.68;;;;;;;7.66;77.08;93659.00;5030265;28;20042;-55
2022/04/13 02:40:21;;;;;;;12.87;6.40;;;;;;;7.62;76.97;93666.44;5028566;28;20071;-51
2022/04/13 02:42:48;;;;;;;9.45;6.20;;;;;;;7.58;77.86;93656.31;5029942;28;20044;-54
2022/04/13 02:45:15;;;;;;;11.15;6.40;;;;;;;7.57;77.96;93660.22;5029714;28;20049;-50
2022/04/13 02:47:42;;;;;;;9.00;6.03;;;;;;;7.56;78.32;93660.63;5030221;28;20049;-47
2022/04/13 02:50:09;;;;;;;11.57;6.35;;;;;;;7.53;77.81;93664.19;5029801;28;20041;-47
2022/04/13 02:52:37;;;;;;;11.27;6.20;;;;;;;7.53;78.27;93661.44;5030329;28;20042;-47
2022/04/13 02:55:04;;;;;;;10.43;5.88;;;;;;;7.47;78.04;93663.06;5030121;28;20053;-52
2022/04/13 02:57:31;;;;;;;11.85;6.25;;;;;;;7.34;77.91;93660.78;5029581;28;20033;-47
2022/04/13 02:59:57;;;;;;;11.55;6.38;;;;;;;7.28;78.41;93664.34;5030266;28;20042;-56
2022/04/13 03:02:29;;;;;;;11.00;6.50;;;;;;;7.24;78.97;93666.31;5029583;28;20058;-49
2022/04/13 03:04:56;;;;;;;10.10;6.30;;;;;;;7.20;78.74;93661.69;5030315;28;20041;-46
2022/04/13 03:07:25;;;;;;;10.32;6.25;;;;;;;7.20;78.83;93666.34;5029579;28;20053;-51
2022/04/13 03:09:52;;;;;;;10.18;6.30;;;;;;;7.19;78.97;93659.34;5029966;28;20045;-48
2022/04/13 03:12:19;;;;;;;11.60;6.75;;;;;;;7.18;78.71;93668.69;5029611;28;20705;-53
2022/04/13 03:14:46;;;;;;;13.90;6.68;;;;;;;7.17;79.07;93669.88;5030214;28;20056;-51
2022/04/13 03:17:12;;;;;;;11.73;6.33;;;;;;;7.05;80.06;93668.38;5033370;28;20051;-49
2022/04/13 03:19:39;;;;;;;12.38;6.63;;;;;;;6.98;80.50;93657.50;5033936;28;20049;-51
2022/04/13 03:22:06;;;;;;;10.73;6.30;;;;;;;6.95;80.21;93664.53;5033565;28;20091;-48
2022/04/13 03:24:34;;;;;;;11.25;6.20;;;;;;;6.95;79.70;93661.81;5023210;28;20046;-51
2022/04/13 03:27:01;;;;;;;9.68;6.10;;;;;;;6.91;79.79;93666.50;5026708;28;20049;-51
2022/04/13 03:29:28;;;;;;;12.23;6.80;;;;;;;6.88;80.01;93664.59;5033322;28;20041;-50
2022/04/13 03:31:55;;;;;;;13.43;7.40;;;;;;;6.89;80.29;93671.59;5033571;28;20049;-50
2022/04/13 03:34:22;;;;;;;15.50;7.70;;;;;;;6.94;80.30;93675.84;5033256;28;20050;-52
2022/04/13 03:36:50;;;;;;;12.80;7.20;;;;;;;6.93;80.10;93668.84;5033554;28;20041;-51
2022/04/13 03:39:17;;;;;;;11.88;7.40;;;;;;;6.93;79.67;93666.13;5032873;28;20482;-53
2022/04/13 03:41:44;;;;;;;13.40;7.63;;;;;;;6.91;80.08;93663.78;5033566;28;20045;-50
2022/04/13 03:44:11;;;;;;;15.13;7.82;;;;;;;6.90;80.00;93673.16;5033165;28;20045;-51
2022/04/13 03:46:38;;;;;;;13.50;7.50;;;;;;;6.89;79.45;93666.13;5032276;28;20041;-48
2022/04/13 03:49:06;;;;;;;14.88;7.88;;;;;;;6.84;79.63;93671.22;5032514;28;20045;-48
2022/04/13 03:51:33;;;;;;;15.43;7.40;;;;;;;6.73;79.98;93668.56;5032410;28;21729;-49
2022/04/13 03:54:00;;;;;;;12.77;6.50;;;;;;;6.67;80.10;93670.91;5033303;28;20041;-51
2022/04/13 03:56:28;;;;;;;13.90;6.80;;;;;;;6.50;80.82;93666.31;5032884;28;20053;-49
2022/04/13 03:58:59;;;;;;;15.65;7.05;;;;;;;6.29;82.56;93670.66;5031904;28;20037;-54
2022/04/13 04:01:26;;;;;;;12.82;7.22;;;;;;;6.18;83.73;93675.38;5031313;28;20045;-55
2022/04/13 04:03:54;;;;;;;13.85;6.90;;;;;;;6.27;83.24;93681.19;5033156;28;20118;-49
2022/04/13 04:06:21;;;;;;;12.00;7.07;;;;;;;6.34;82.50;93670.28;5032765;28;20045;-52
2022/04/13 04:08:47;;;;;;;25.05;14.30;;;;;;;6.38;82.20;93676.50;5032946;28;20038;-49
2022/04/13 04:11:14;;;;;;;35.70;19.63;;;;;;;6.39;81.71;93674.53;5032679;28;20041;-55
2022/04/13 04:13:41;;;;;;;25.80;14.00;;;;;;;6.38;81.35;93673.75;5033292;28;20052;-46
2022/04/13 04:16:08;;;;;;;15.10;8.80;;;;;;;6.36;80.74;93672.59;5032255;28;20402;-55
2022/04/13 04:18:35;;;;;;;20.90;10.07;;;;;;;6.32;80.48;93677.28;5031154;28;20041;-50
2022/04/13 04:21:02;;;;;;;19.50;9.70;;;;;;;6.25;80.26;93669.13;5032607;28;20409;-48
2022/04/13 04:23:29;;;;;;;20.50;9.88;;;;;;;6.22;80.55;93673.44;5027661;28;20038;-52
2022/04/13 04:25:56;;;;;;;16.58;9.30;;;;;;;6.23;80.36;93682.38;5020989;28;20045;-54
2022/04/13 04:28:22;;;;;;;15.75;8.88;;;;;;;6.26;80.50;93681.56;5032185;28;20055;-48
2022/04/13 04:30:49;;;;;;;13.77;7.83;;;;;;;6.27;80.74;93675.72;5032566;28;20041;-51
2022/04/13 04:33:16;;;;;;;13.95;7.95;;;;;;;6.26;80.27;93679.63;5032075;28;20052;-52
2022/04/13 04:35:47;;;;;;;12.43;7.22;;;;;;;6.18;80.51;93675.38;5032662;28;20045;-51
2022/04/13 04:38:14;;;;;;;14.65;7.70;;;;;;;6.19;80.49;93680.41;5031950;28;20111;-52
2022/04/13 04:40:40;;;;;;;14.10;7.75;;;;;;;6.13;81.13;93671.09;5032086;28;20044;-47
2022/04/13 04:43:07;;;;;;;13.27;7.33;;;;;;;6.16;81.22;93675.78;5031944;28;20084;-54
2022/04/13 04:45:34;;;;;;;12.73;7.20;;;;;;;6.16;80.81;93675.00;5032353;28;20489;-47
2022/04/13 04:48:04;;;;;;;12.18;7.35;;;;;;;6.18;80.80;93672.66;5032113;28;20048;-49
2022/04/13 04:50:33;;;;;;;12.00;7.63;;;;;;;6.23;80.51;93674.97;5031540;28;20769;-54
2022/04/13 04:53:00;;;;;;;11.13;6.95;;;;;;;6.29;79.91;93672.63;5031183;28;20051;-47
2022/04/13 04:55:27;;;;;;;14.80;7.00;;;;;;;6.29;79.67;93673.38;5031771;28;20487;-46
2022/04/13 04:57:54;;;;;;;14.57;7.47;;;;;;;6.35;79.90;93669.09;5031942;28;20368;-50
2022/04/13 05:00:21;;;;;;;12.23;6.65;;;;;;;6.48;79.06;93671.38;5031437;28;20517;-53
2022/04/13 05:02:50;;;;;;;15.38;8.80;;;;;;;6.56;78.62;93672.91;5032039;28;20037;-52
2022/04/13 05:05:19;;;;;;;13.23;7.38;;;;;;;6.70;78.43;93677.53;5031915;28;20058;-53
2022/04/13 05:07:46;;;;;;;14.77;7.40;;;;;;;6.79;78.19;93675.91;5031911;28;20045;-51
2022/04/13 05:10:13;;;;;;;12.63;7.28;;;;;;;6.86;77.68;93674.34;5031216;28;20058;-51
2022/04/13 05:12:47;;;;;;;13.80;7.75;;;;;;;6.84;77.51;93682.94;5030641;28;20051;-50
2022/04/13 05:15:14;;;;;;;14.63;7.88;;;;;;;6.95;77.30;93682.88;5031138;28;20422;-49
2022/04/13 05:17:41;;;;;;;15.15;7.47;;;;;;;7.08;76.45;93691.38;5031387;28;20049;-53
2022/04/13 05:20:10;;;;;;;14.03;7.27;;;;;;;7.20;76.52;93697.16;5031307;28;20045;-52
2022/04/13 05:22:37;;;;;;;14.27;8.27;;;;;;;7.25;76.28;93698.69;5031606;28;20425;-49
2022/04/13 05:25:15;;;;;;;11.48;7.22;;;;;;;7.45;76.19;93696.22;5031572;28;20052;-48
2022/04/13 05:27:43;;;;;;;14.35;7.38;;;;;;;7.50;76.81;93692.28;5030538;28;20720;-51
2022/04/13 05:30:11;;;;;;;14.90;7.30;;;;;;;7.60;76.10;93700.38;5030901;28;20045;-51
2022/04/13 05:32:48;;;;;;;16.73;7.40;;;;;;;7.61;76.37;93692.97;5031262;28;20044;-54
2022/04/13 05:35:16;;;;;;;17.00;7.63;;;;;;;7.72;75.90;93696.38;5031013;28;20049;-49
2022/04/13 05:37:43;;;;;;;13.52;7.78;;;;;;;7.93;75.08;93689.97;5030789;28;20699;-53
2022/04/13 05:40:11;;;;;;;17.50;8.85;;;;;;;7.78;75.76;93694.00;5030605;28;20059;-54
2022/04/13 05:42:38;;;;;;;12.73;8.15;;;;;;;8.08;74.07;93700.78;5031357;28;20037;-50
2022/04/13 05:45:05;;;;;;;15.40;8.20;;;;;;;8.26;74.07;93700.59;5029795;28;20060;-48
2022/04/13 05:47:32;;;;;;;16.35;7.95;;;;;;;8.46;72.90;93695.34;5030150;28;20794;-50
2022/04/13 05:49:59;;;;;;;19.92;8.82;;;;;;;8.55;71.77;93701.09;5031153;28;20049;-48
2022/04/13 05:52:26;;;;;;;17.55;7.85;;;;;;;8.71;72.54;93700.53;5029472;28;20501;-54
2022/04/13 05:54:52;;;;;;;13.63;7.60;;;;;;;8.95;71.43;93696.75;5031113;28;20075;-47
2022/04/13 05:57:19;;;;;;;11.43;7.13;;;;;;;9.25;71.06;93692.41;5030416;28;20042;-48
2022/04/13 05:59:46;;;;;;;14.90;7.78;;;;;;;9.40;70.75;93693.78;5031025;28;20038;-50
2022/04/13 06:02:13;;;;;;;15.15;7.65;;;;;;;9.38;70.91;93700.88;5014238;28;20049;-49
2022/04/13 06:04:39;;;;;;;14.85;8.05;;;;;;;9.52;69.27;93700.66;5026055;28;20491;-54
2022/04/13 06:07:06;;;;;;;13.82;8.25;;;;;;;8.94;71.72;93703.38;5030092;28;20050;-53
2022/04/13 06:09:33;;;;;;;14.50;7.73;;;;;;;9.21;70.68;93694.44;5029660;28;20049;-46
2022/04/13 06:12:00;;;;;;;13.05;8.13;;;;;;;9.09;71.56;93695.75;5013334;28;20037;-47
2022/04/13 06:14:26;;;;;;;15.20;7.65;;;;;;;9.61;70.11;93697.38;5030398;28;20049;-55
2022/04/13 06:16:53;;;;;;;18.55;8.93;;;;;;;9.95;68.98;93702.72;5030624;28;20045;-49
2022/04/13 06:19:20;;;;;;;20.55;8.38;;;;;;;10.02;67.99;93701.06;5030040;28;20053;-51
2022/04/13 06:21:47;;;;;;;18.57;8.53;;;;;;;10.27;68.41;93689.66;5030484;28;20048;-51
2022/04/13 06:24:13;;;;;;;23.80;10.32;;;;;;;10.54;67.59;93697.81;5029770;28;20049;-48
2022/04/13 06:26:40;;;;;;;20.80;9.93;;;;;;;10.76;66.91;93698.19;5030628;28;20044;-50
2022/04/13 06:29:07;;;;;;;22.27;9.45;;;;;;;10.81;66.32;93705.94;5029819;28;20038;-54
2022/04/13 06:31:34;;;;;;;18.42;9.70;;;;;;;10.65;67.34;93703.13;5030184;28;20052;-52
2022/04/13 06:34:01;;;;;;;18.77;11.20;;;;;;;10.92;67.34;93700.22;5030611;28;20045;-47
2022/04/13 06:36:28;;;;;;;16.90;9.95;;;;;;;10.96;67.00;93700.94;5029918;28;20889;-47
2022/04/13 06:38:55;;;;;;;19.80;9.85;;;;;;;12.14;64.58;93706.56;5028692;28;20057;-56
2022/04/13 06:41:22;;;;;;;14.52;8.40;;;;;;;13.56;59.49;93708.66;5026674;28;20057;-50
2022/04/13 06:43:48;;;;;;;15.40;9.10;;;;;;;14.45;56.59;93709.78;5028364;28;20049;-51
2022/04/13 06:46:15;;;;;;;14.57;8.23;;;;;;;14.52;56.13;93708.78;5028833;28;20050;-55
2022/04/13 06:48:42;;;;;;;13.23;7.78;;;;;;;16.00;52.36;93712.53;5029576;28;20044;-50
2022/04/13 06:51:09;;;;;;;11.05;6.40;;;;;;;16.25;50.39;93717.88;5027826;28;20046;-49
2022/04/13 06:53:35;;;;;;;11.27;6.35;;;;;;;16.58;50.40;93709.03;5030173;28;20056;-51
2022/04/13 06:56:02;;;;;;;10.60;5.97;;;;;;;16.95;48.99;93709.06;5029744;28;20042;-49
2022/04/13 06:58:29;;;;;;;11.77;6.00;;;;;;;16.81;48.96;93717.97;5029201;28;20051;-55
2022/04/13 07:00:57;;;;;;;10.23;6.20;;;;;;;17.57;47.45;93714.25;5023386;28;20446;-51
2022/04/13 07:03:25;;;;;;;11.57;5.90;;;;;;;16.96;48.60;93719.72;5010524;28;20042;-54
2022/04/13 07:05:53;;;;;;;10.85;5.50;;;;;;;18.03;45.84;93718.91;5010515;28;20052;-55
2022/04/13 07:08:20;;;;;;;9.80;5.47;;;;;;;17.55;46.30;93718.72;5024096;28;20049;-55
2022/04/13 07:10:47;;;;;;;9.73;5.50;;;;;;;18.06;45.10;93723.53;5030394;28;20406;-53
2022/04/13 07:13:14;;;;;;;7.82;5.43;;;;;;;17.36;46.39;93735.41;5028455;28;20045;-50
2022/04/13 07:15:41;;;;;;;11.65;5.95;;;;;;;17.42;46.94;93732.00;5029531;28;20037;-54
2022/04/13 07:18:09;;;;;;;11.45;5.78;;;;;;;19.16;43.13;93722.13;5029371;28;20049;-52
2022/04/13 07:20:35;;;;;;;8.60;5.15;;;;;;;19.57;41.31;93721.59;5029873;28;20060;-52
2022/04/13 07:23:02;;;;;;;10.67;5.27;;;;;;;20.61;39.95;93729.13;5029988;28;20048;-51
2022/04/13 07:25:30;;;;;;;11.13;5.30;;;;;;;20.35;40.01;93724.94;5029701;28;20067;-53
2022/04/13 07:27:57;;;;;;;14.75;5.88;;;;;;;20.26;39.85;93725.06;5029895;28;20388;-47
2022/04/13 07:30:24;;;;;;;13.60;5.03;;;;;;;21.04;38.17;93724.59;5028047;28;20057;-50
2022/04/13 07:32:54;;;;;;;11.77;5.15;;;;;;;21.47;37.44;93727.69;5030072;28;20056;-48
2022/04/13 07:35:22;;;;;;;10.50;5.50;;;;;;;20.87;38.98;93729.97;5029697;28;20042;-47
2022/04/13 07:37:49;;;;;;;10.10;5.00;;;;;;;20.59;39.15;93728.84;5029335;28;20034;-55
2022/04/13 07:40:17;;;;;;;7.75;5.00;;;;;;;20.45;39.62;93727.59;5028174;28;20049;-53
2022/04/13 07:42:44;;;;;;;8.40;5.13;;;;;;;21.54;38.23;93718.84;5029460;28;20083;-54
2022/04/13 07:45:11;;;;;;;8.48;4.60;;;;;;;22.17;36.48;93728.56;5029022;28;20498;-51
2022/04/13 07:47:38;;;;;;;10.70;5.00;;;;;;;23.67;34.23;93717.91;5029995;28;20376;-53
2022/04/13 07:50:12;;;;;;;7.03;4.20;;;;;;;23.50;33.79;93726.28;5030064;28;20060;-48
2022/04/13 07:52:41;;;;;;;8.45;3.90;;;;;;;23.33;33.51;93723.41;5029038;28;20041;-49
2022/04/13 07:55:12;;;;;;;8.55;3.60;;;;;;;23.15;32.96;93729.47;5029244;28;20042;-51
2022/04/13 07:57:40;;;;;;;10.38;4.03;;;;;;;23.25;33.38;93724.41;5029416;28;20041;-48
2022/04/13 08:00:12;;;;;;;7.40;3.40;;;;;;;23.65;32.36;93716.91;5028885;28;20052;-46
2022/04/13 08:02:40;;;;;;;6.28;3.22;;;;;;;24.22;31.60;93726.16;5032449;28;20045;-52
2022/04/13 08:05:08;;;;;;;5.60;3.15;;;;;;;25.80;29.10;93725.75;5031489;28;20059;-50
2022/04/13 08:07:34;;;;;;;6.10;3.20;;;;;;;24.54;30.12;93729.47;5032936;28;20053;-52
2022/04/13 08:10:01;;;;;;;7.28;3.00;;;;;;;25.09;29.61;93724.25;5033049;28;20041;-51
2022/04/13 08:12:29;;;;;;;6.37;3.30;;;;;;;25.50;29.02;93723.59;5032573;28;20045;-49
2022/04/13 08:14:57;;;;;;;5.80;3.30;;;;;;;26.41;27.85;93729.41;5032950;28;20474;-51
2022/04/13 08:17:25;;;;;;;5.85;3.08;;;;;;;26.19;27.48;93731.13;5032472;28;20072;-53
2022/04/13 08:19:53;;;;;;;5.45;2.95;;;;;;;26.57;28.15;93730.56;5032853;28;20041;-51
2022/04/13 08:22:25;;;;;;;5.85;3.22;;;;;;;26.80;27.11;93731.13;5032507;28;20056;-49
2022/04/13 08:24:52;;;;;;;6.33;3.20;;;;;;;27.30;26.61;93727.78;5032844;28;20071;-49
2022/04/13 08:27:19;;;;;;;5.63;3.10;;;;;;;26.16;27.77;93725.75;5032392;28;20140;-50
2022/04/13 08:29:46;;;;;;;5.10;3.10;;;;;;;26.97;27.25;93733.78;5032820;28;20045;-52
2022/04/13 08:32:17;;;;;;;8.27;3.10;;;;;;;26.76;26.76;93739.09;5032265;28;20045;-53
2022/04/13 08:34:46;;;;;;;6.43;2.90;;;;;;;26.08;28.14;93740.41;5032786;28;20041;-49
2022/04/13 08:37:13;;;;;;;6.27;2.87;;;;;;;27.89;26.12;93736.56;5032128;28;20051;-52
2022/04/13 08:39:40;;;;;;;5.68;2.90;;;;;;;27.21;26.30;93733.78;5032334;28;20045;-53
2022/04/13 08:42:13;;;;;;;4.65;2.63;;;;;;;27.72;26.64;93735.97;5032212;28;20045;-48
2022/04/13 08:44:45;;;;;;;6.35;3.30;;;;;;;26.95;26.82;93742.00;5032581;28;20049;-50
2022/04/13 08:47:23;;;;;;;4.68;2.60;;;;;;;28.77;25.12;93731.34;5031900;28;20103;-52
2022/04/13 08:49:51;;;;;;;4.73;2.90;;;;;;;29.77;23.58;93732.03;5032648;28;20052;-51
2022/04/13 08:52:23;;;;;;;6.85;3.10;;;;;;;29.96;23.12;93732.66;5032037;28;20047;-54
2022/04/13 08:55:09;;;;;;;4.72;2.65;;;;;;;30.48;22.75;93735.84;5032259;28;20045;-51
2022/04/13 08:57:44;;;;;;;8.32;2.80;;;;;;;30.68;22.87;93734.31;5029355;28;20045;-56
2022/04/13 09:00:13;;;;;;;5.03;2.50;;;;;;;29.53;22.68;93733.03;5025224;28;20060;-51
2022/04/13 09:03:00;;;;;;;5.43;2.53;;;;;;;28.87;23.43;93735.25;5012581;28;20034;-56
2022/04/13 09:05:31;;;;;;;7.78;2.60;;;;;;;28.98;23.50;93734.31;5011931;28;20066;-52
2022/04/13 09:08:07;;;;;;;6.78;2.30;;;;;;;30.27;22.35;93730.16;5023347;28;20041;-51
2022/04/13 09:10:36;;;;;;;5.93;2.38;;;;;;;30.09;21.72;93736.75;5031297;28;20064;-52
2022/04/13 09:13:04;;;;;;;4.82;2.10;;;;;;;29.86;21.88;93729.53;5029922;28;20060;-50
2022/04/13 09:15:32;;;;;;;4.73;2.20;;;;;;;31.25;20.57;93733.66;5031688;28;20051;-50
2022/04/13 09:18:00;;;;;;;4.60;2.17;;;;;;;29.81;21.97;93727.56;5031839;28;20056;-50
2022/04/13 09:20:27;;;;;;;6.32;2.47;;;;;;;28.01;22.19;93733.56;5031155;28;20048;-52
2022/04/13 09:22:58;;;;;;;3.85;1.90;;;;;;;30.59;19.74;93737.66;5031597;28;20049;-51
2022/04/13 09:25:27;;;;;;;5.07;2.00;;;;;;;33.79;17.35;93737.75;5031543;28;20473;-50
2022/04/13 09:27:54;;;;;;;6.17;2.00;;;;;;;31.30;19.64;93738.41;5031543;28;20045;-55
2022/04/13 09:30:21;;;;;;;7.10;2.10;;;;;;;31.06;19.26;93733.91;5031013;28;20080;-54
2022/04/13 09:32:50;;;;;;;8.20;1.85;;;;;;;31.73;18.23;93731.28;5031688;28;20054;-53
2022/04/13 09:35:17;;;;;;;3.63;1.88;;;;;;;34.71;16.30;93727.25;5031264;28;20068;-51
2022/04/13 09:37:45;;;;;;;6.82;1.88;;;;;;;34.50;16.19;93730.41;5031375;28;20046;-56
2022/04/13 09:40:30;;;;;;;4.57;1.87;;;;;;;35.38;15.25;93727.28;5031059;28;20045;-51
2022/04/13 09:43:11;;;;;;;4.28;1.73;;;;;;;36.35;14.67;93735.16;5031331;28;20491;-55
2022/04/13 09:45:50;;;;;;;5.72;1.60;;;;;;;29.58;19.85;93735.75;5030199;28;20905;-53
2022/04/13 09:48:21;;;;;;;5.68;1.70;;;;;;;34.22;14.79;93738.72;5030878;28;20038;-56
2022/04/13 09:50:50;;;;;;;4.47;1.52;;;;;;;33.49;15.03;93732.88;5031214;28;20050;-52
2022/04/13 09:53:19;;;;;;;4.83;1.70;;;;;;;30.82;17.91;93738.59;5030704;28;20056;-52
2022/04/13 09:55:53;;;;;;;8.02;1.70;;;;;;;29.86;18.61;93738.00;5031232;28;20045;-55
2022/04/13 09:58:25;;;;;;;4.22;1.63;;;;;;;29.38;18.31;93727.91;5030471;28;20383;-50
2022/04/13 10:01:00;;;;;;;4.78;1.52;;;;;;;27.50;20.34;93729.34;5030904;28;20041;-50
2022/04/13 10:03:28;;;;;;;4.35;1.60;;;;;;;29.53;19.10;93730.19;5030704;28;20037;-53
2022/04/13 10:05:56;;;;;;;3.80;1.60;;;;;;;31.03;17.12;93726.53;5031149;28;20040;-55
2022/04/13 10:08:26;;;;;;;3.95;1.50;;;;;;;29.13;19.17;93724.56;5030336;28;20051;-53
2022/04/13 10:10:56;;;;;;;4.10;1.60;;;;;;;31.60;17.38;93722.91;5031365;28;20037;-53
2022/04/13 10:13:42;;;;;;;3.10;1.48;;;;;;;30.72;17.05;93720.56;5030383;28;20049;-51
2022/04/13 10:16:11;;;;;;;4.50;1.52;;;;;;;33.77;14.11;93714.81;5030409;28;20060;-55
2022/04/13 10:18:52;;;;;;;4.73;1.33;;;;;;;29.13;16.76;93718.91;5030878;28;20110;-54
2022/04/13 10:21:47;;;;;;;4.43;1.50;;;;;;;25.28;21.27;93713.25;5030313;28;20045;-49
2022/04/13 10:24:25;;;;;;;3.67;1.50;;;;;;;27.27;18.86;93703.50;5029881;28;20049;-56
2022/04/13 10:27:02;;;;;;;5.22;1.50;;;;;;;25.79;21.15;93718.59;5030971;28;20041;-54
2022/04/13 10:29:31;;;;;;;4.55;1.52;;;;;;;26.16;21.32;93703.25;5029602;28;20054;-53
2022/04/13 10:32:25;;;;;;;2.73;1.27;;;;;;;31.26;16.67;93712.47;5030472;28;20056;-50
2022/04/13 10:34:55;;;;;;;3.10;1.40;;;;;;;31.42;16.56;93716.16;5029837;28;20791;-50
2022/04/13 10:37:23;;;;;;;5.35;1.40;;;;;;;28.21;19.06;93707.63;5030129;28;20049;-53
2022/04/13 10:39:52;;;;;;;3.88;1.33;;;;;;;28.91;18.09;93705.94;5030348;28;20069;-54
2022/04/13 10:42:21;;;;;;;5.65;1.60;;;;;;;28.13;18.47;93709.53;5024831;28;20045;-49
2022/04/13 10:44:53;;;;;;;5.90;1.63;;;;;;;29.44;17.76;93694.66;5019000;28;20080;-48
2022/04/13 10:47:47;;;;;;;7.05;1.48;;;;;;;28.04;18.57;93702.22;5029999;28;20080;-50
2022/04/13 10:50:16;;;;;;;11.82;1.45;;;;;;;26.60;18.50;93704.97;5029685;28;20067;-50
2022/04/13 10:53:02;;;;;;;6.05;1.20;;;;;;;29.74;16.33;93704.84;5030370;28;20059;-50
2022/04/13 10:55:33;;;;;;;6.60;1.50;;;;;;;24.49;20.58;93702.94;5029960;28;20082;-54
2022/04/13 10:58:12;;;;;;;5.77;1.33;;;;;;;25.06;19.46;93706.38;5030192;28;20049;-51
2022/04/13 11:00:45;;;;;;;6.70;1.40;;;;;;;27.73;17.50;93702.91;5029172;28;20880;-52
2022/04/13 11:03:12;;;;;;;6.82;1.45;;;;;;;27.10;17.18;93697.25;5029705;28;20077;-54
2022/04/13 11:05:40;;;;;;;6.00;1.40;;;;;;;25.18;18.48;93707.13;5029027;28;20546;-53
2022/04/13 11:08:28;;;;;;;7.35;1.40;;;;;;;24.35;20.05;93706.78;5029706;28;20049;-55
2022/04/13 11:10:55;;;;;;;7.00;1.50;;;;;;;23.29;20.94;93705.34;5030319;28;20048;-53
2022/04/13 11:13:31;;;;;;;8.60;1.30;;;;;;;22.62;20.39;93709.34;5029679;28;20451;-52
2022/04/13 11:16:17;;;;;;;5.43;1.23;;;;;;;26.41;17.64;93704.09;5030148;28;20042;-54
2022/04/13 11:19:13;;;;;;;8.48;1.33;;;;;;;25.05;19.86;93702.06;5028506;28;20471;-48
2022/04/13 11:21:52;;;;;;;5.47;1.42;;;;;;;24.90;20.14;93696.75;5027501;28;20509;-53
2022/04/13 11:24:31;;;;;;;9.00;1.50;;;;;;;24.37;20.35;93709.84;5011878;28;20048;-51
2022/04/13 11:26:59;;;;;;;4.85;1.50;;;;;;;24.45;20.18;93696.81;5028596;28;20042;-56
2022/04/13 11:29:38;;;;;;;11.02;1.38;;;;;;;22.97;21.25;93702.63;5029294;28;20038;-53
2022/04/13 11:32:09;;;;;;;11.02;1.70;;;;;;;22.23;22.57;93695.81;5012346;28;20083;-55
2022/04/13 11:34:42;;;;;;;9.40;1.83;;;;;;;23.24;21.94;93706.06;5028908;28;20676;-55
2022/04/13 11:37:11;;;;;;;6.30;1.50;;;;;;;24.43;20.47;93690.97;5031848;28;20053;-56
2022/04/13 11:39:45;;;;;;;11.05;1.50;;;;;;;24.59;20.44;93689.44;5033610;28;20049;-58